Flight Track Log - Related Links

Times and Time Zones

All times are in EDT time to prevent confusion due to time zone crossing. See the C-GLTP flight status page for this flight to view local times or setup timezone preferences in your user account.

Time Position Orientation Groundspeed Altitude Reporting Facility
EDT Latitude Longitude Course Direction KTS MPH feet Rate Location/Type
Thu 09:56:00 AM 27.4120 -81.0771 310° West  Level FlightAware Approximate
Thu 10:18:00 AM 27.9601 -81.9690 310° West  Level FlightAware Approximate
Thu 10:19:00 AM 27.9902 -82.0043 331° Northwest  Level FlightAware Approximate
Thu 10:20:00 AM 28.0283 -82.0286 331° Northwest  Level FlightAware Approximate
Thu 10:21:00 AM 28.0665 -82.0528 331° Northwest  Level FlightAware Approximate
Thu 10:22:00 AM 28.1046 -82.0771 331° Northwest  Level FlightAware Approximate
Thu 10:23:00 AM 28.1427 -82.1014 331° Northwest  Level FlightAware Approximate
Thu 10:24:00 AM 28.1789 -82.1289 319° Northwest  Level FlightAware Approximate
Thu 10:25:00 AM 28.2134 -82.1589 330° Northwest  Level FlightAware Approximate
Thu 10:26:00 AM 28.2511 -82.1841 330° Northwest  Level FlightAware Approximate
Thu 10:27:00 AM 28.2889 -82.2092 330° Northwest  Level FlightAware Approximate
Thu 10:28:00 AM 28.3266 -82.2344 330° Northwest  Level FlightAware Approximate
Thu 10:29:00 AM 28.3645 -82.2590 332° Northwest  Level FlightAware Approximate
Thu 10:30:00 AM 28.4030 -82.2827 332° Northwest  Level FlightAware Approximate
Thu 10:31:00 AM 28.4414 -82.3064 331° Northwest  Level FlightAware Approximate
Thu 10:32:00 AM 28.4798 -82.3302 331° Northwest  Level FlightAware Approximate
Thu 10:33:00 AM 28.5183 -82.3540 331° Northwest  Level FlightAware Approximate
Thu 10:34:00 AM 28.5567 -82.3777 331° Northwest  Level FlightAware Approximate
Thu 10:35:00 AM 28.5951 -82.4016 331° Northwest  Level FlightAware Approximate
Thu 10:36:00 AM 28.6335 -82.4254 331° Northwest  Level FlightAware Approximate
Thu 10:37:00 AM 28.6719 -82.4492 331° Northwest  Level FlightAware Approximate
Thu 10:38:00 AM 28.7108 -82.4720 336° Northwest  Level FlightAware Approximate
Thu 10:39:00 AM 28.7500 -82.4939 331° Northwest  Level FlightAware Approximate
Thu 10:40:00 AM 28.7882 -82.5182 331° Northwest  Level FlightAware Approximate
Thu 10:41:00 AM 28.8264 -82.5425 331° Northwest  Level FlightAware Approximate
Thu 10:42:00 AM 28.8646 -82.5668 331° Northwest  Level FlightAware Approximate
Thu 10:43:00 AM 28.9028 -82.5911 331° Northwest  Level FlightAware Approximate
Thu 10:44:00 AM 28.9410 -82.6154 331° Northwest  Level FlightAware Approximate
Thu 10:45:00 AM 28.9792 -82.6398 331° Northwest  Level FlightAware Approximate
Thu 10:46:00 AM 29.0174 -82.6642 331° Northwest  Level FlightAware Approximate
Thu 10:47:00 AM 29.0556 -82.6886 331° Northwest  Level FlightAware Approximate
Thu 10:48:00 AM 29.0938 -82.7130 331° Northwest  Level FlightAware Approximate
Thu 10:49:00 AM 29.1319 -82.7374 331° Northwest  Level FlightAware Approximate
Thu 10:50:00 AM 29.1701 -82.7619 331° Northwest  Level FlightAware Approximate
Thu 10:51:00 AM 29.2083 -82.7863 331° Northwest  Level FlightAware Approximate
Thu 10:52:00 AM 29.2464 -82.8108 331° Northwest  Level FlightAware Approximate
Thu 10:53:00 AM 29.2846 -82.8353 331° Northwest  Level FlightAware Approximate
Thu 10:54:00 AM 29.3227 -82.8598 331° Northwest  Level FlightAware Approximate
Thu 10:55:00 AM 29.3582 -82.8886 331° Northwest  Level FlightAware Approximate
Thu 10:56:00 AM 29.3964 -82.9131 331° Northwest  Level FlightAware Approximate
Thu 10:57:00 AM 29.4346 -82.9376 331° Northwest  Level FlightAware Approximate
Thu 10:58:00 AM 29.4728 -82.9622 331° Northwest  Level FlightAware Approximate
Thu 10:59:00 AM 29.5109 -82.9867 331° Northwest  Level FlightAware Approximate
Thu 11:00:00 AM 29.5491 -83.0113 331° Northwest  Level FlightAware Approximate
Thu 11:01:00 AM 29.5862 -83.0373 310° West  Level FlightAware Approximate
Thu 11:02:00 AM 29.6145 -83.0757 310° West  Level FlightAware Approximate
Thu 11:03:00 AM 29.6427 -83.1141 310° West  Level FlightAware Approximate
Thu 11:04:00 AM 29.6709 -83.1526 310° West  Level FlightAware Approximate
Thu 11:05:00 AM 29.6991 -83.1911 310° West  Level FlightAware Approximate
Thu 11:06:00 AM 29.7273 -83.2296 310° West  Level FlightAware Approximate
Thu 11:07:00 AM 29.7554 -83.2681 310° West  Level FlightAware Approximate
Thu 11:08:00 AM 29.7836 -83.3066 310° West  Level FlightAware Approximate
Thu 11:09:00 AM 29.8118 -83.3452 310° West  Level FlightAware Approximate
Thu 11:10:00 AM 29.8399 -83.3838 310° West  Level FlightAware Approximate
Thu 11:11:00 AM 29.8680 -83.4224 310° West  Level FlightAware Approximate
Thu 11:12:00 AM 29.8962 -83.4610 310° West  Level FlightAware Approximate
Thu 11:13:00 AM 29.9243 -83.4997 310° West  Level FlightAware Approximate
Thu 11:14:00 AM 29.9524 -83.5384 310° West  Level FlightAware Approximate
Thu 11:15:00 AM 29.9805 -83.5770 310° West  Level FlightAware Approximate
Thu 11:16:00 AM 30.0085 -83.6158 310° West  Level FlightAware Approximate
Thu 11:17:00 AM 30.0368 -83.6543 313° West  Level FlightAware Approximate
Thu 11:18:00 AM 30.0665 -83.6914 313° West  Level FlightAware Approximate
Thu 11:19:00 AM 30.0962 -83.7285 313° West  Level FlightAware Approximate
Thu 11:20:00 AM 30.1259 -83.7656 313° West  Level FlightAware Approximate
Thu 11:21:00 AM 30.1556 -83.8027 313° West  Level FlightAware Approximate
Thu 11:22:00 AM 30.1834 -83.8417 308° West  Level FlightAware Approximate
Thu 11:23:00 AM 30.2101 -83.8818 308° West  Level FlightAware Approximate
Thu 11:24:00 AM 30.2369 -83.9218 308° West  Level FlightAware Approximate
Thu 11:25:00 AM 30.2636 -83.9619 308° West  Level FlightAware Approximate
Thu 11:26:00 AM 30.2903 -84.0020 308° West  Level FlightAware Approximate
Thu 11:27:00 AM 30.3177 -84.0414 310° West  Level FlightAware Approximate
Thu 11:28:00 AM 30.3456 -84.0805 310° West  Level FlightAware Approximate
Thu 11:29:00 AM 30.3735 -84.1195 310° West  Level FlightAware Approximate
Thu 11:30:00 AM 30.4014 -84.1585 310° West  Level FlightAware Approximate
Thu 11:31:00 AM 30.4293 -84.1976 310° West  Level FlightAware Approximate
Thu 11:32:00 AM 30.4572 -84.2366 310° West  Level FlightAware Approximate
Thu 11:33:00 AM 30.4851 -84.2757 310° West  Level FlightAware Approximate
Thu 11:34:00 AM 30.5130 -84.3148 310° West  Level FlightAware Approximate
Thu 11:35:00 AM 30.5409 -84.3539 310° West  Level FlightAware Approximate
Thu 11:36:00 AM 30.5780 -84.3774 342° North  Level FlightAware Approximate
Thu 11:37:00 AM 30.6195 -84.3934 342° North  Level FlightAware Approximate
Thu 11:38:00 AM 30.6610 -84.4094 342° North  Level FlightAware Approximate
Thu 11:39:00 AM 30.7025 -84.4255 342° North  Level FlightAware Approximate
Thu 11:40:00 AM 30.7440 -84.4415 342° North  Level FlightAware Approximate
Thu 11:41:00 AM 30.7855 -84.4576 342° North  Level FlightAware Approximate
Thu 11:42:00 AM 30.8270 -84.4736 342° North  Level FlightAware Approximate
Thu 11:43:00 AM 30.8685 -84.4897 342° North  Level FlightAware Approximate
Thu 11:44:00 AM 30.9100 -84.5058 342° North  Level FlightAware Approximate
Thu 11:45:00 AM 30.9515 -84.5219 342° North  Level FlightAware Approximate
Thu 11:46:00 AM 30.9930 -84.5380 342° North  Level FlightAware Approximate
Thu 11:47:00 AM 31.0345 -84.5542 342° North  Level FlightAware Approximate
Thu 11:48:00 AM 31.0760 -84.5703 342° North  Level FlightAware Approximate
Thu 11:49:00 AM 31.1175 -84.5862 342° North  Level FlightAware Approximate
Thu 11:50:00 AM 31.1591 -84.6022 342° North  Level FlightAware Approximate
Thu 11:51:00 AM 31.2006 -84.6182 342° North  Level FlightAware Approximate
Thu 11:52:00 AM 31.2422 -84.6342 342° North  Level FlightAware Approximate
Thu 11:53:00 AM 31.2837 -84.6503 342° North  Level FlightAware Approximate
Thu 11:54:00 AM 31.3252 -84.6663 342° North  Level FlightAware Approximate
Thu 11:55:00 AM 31.3668 -84.6824 342° North  Level FlightAware Approximate
Thu 11:56:00 AM 31.4083 -84.6984 342° North  Level FlightAware Approximate
Thu 11:57:00 AM 31.4498 -84.7145 342° North  Level FlightAware Approximate
Thu 11:58:00 AM 31.4913 -84.7306 342° North  Level FlightAware Approximate
Thu 11:59:00 AM 31.5329 -84.7467 342° North  Level FlightAware Approximate
Thu 12:00:00 PM 31.5744 -84.7628 342° North  Level FlightAware Approximate
Thu 12:01:00 PM 31.6159 -84.7790 342° North  Level FlightAware Approximate
Thu 12:02:00 PM 31.6574 -84.7951 342° North  Level FlightAware Approximate
Thu 12:03:00 PM 31.6989 -84.8113 342° North  Level FlightAware Approximate
Thu 12:04:00 PM 31.7404 -84.8275 342° North  Level FlightAware Approximate
Thu 12:05:00 PM 31.7819 -84.8437 342° North  Level FlightAware Approximate
Thu 12:06:00 PM 31.8234 -84.8599 342° North  Level FlightAware Approximate
Thu 12:07:00 PM 31.8649 -84.8761 342° North  Level FlightAware Approximate
Thu 12:08:00 PM 31.9064 -84.8925 341° North  Level FlightAware Approximate
Thu 12:09:00 PM 31.9478 -84.9091 341° North  Level FlightAware Approximate
Thu 12:10:00 PM 31.9892 -84.9256 341° North  Level FlightAware Approximate
Thu 12:11:00 PM 32.0307 -84.9422 341° North  Level FlightAware Approximate
Thu 12:12:00 PM 32.0721 -84.9588 341° North  Level FlightAware Approximate
Thu 12:13:00 PM 32.1135 -84.9754 341° North  Level FlightAware Approximate
Thu 12:14:00 PM 32.1549 -84.9920 341° North  Level FlightAware Approximate
Thu 12:15:00 PM 32.1963 -85.0086 341° North  Level FlightAware Approximate
Thu 12:16:00 PM 32.2377 -85.0253 341° North  Level FlightAware Approximate
Thu 12:17:00 PM 32.2791 -85.0419 341° North  Level FlightAware Approximate
Thu 12:18:00 PM 32.3205 -85.0586 341° North  Level FlightAware Approximate
Thu 12:19:00 PM 32.3619 -85.0753 341° North  Level FlightAware Approximate
Thu 12:20:00 PM 32.4033 -85.0920 341° North  Level FlightAware Approximate
Thu 12:21:00 PM 32.4447 -85.1087 341° North  Level FlightAware Approximate
Thu 12:22:00 PM 32.4861 -85.1254 341° North  Level FlightAware Approximate
Thu 12:23:00 PM 32.5275 -85.1422 341° North  Level FlightAware Approximate
Thu 12:24:00 PM 32.5689 -85.1590 341° North  Level FlightAware Approximate
Thu 12:25:00 PM 32.6103 -85.1757 341° North  Level FlightAware Approximate
Thu 12:26:00 PM 32.6516 -85.1925 341° North  Level FlightAware Approximate
Thu 12:27:00 PM 32.6930 -85.2093 341° North  Level FlightAware Approximate
Thu 12:28:00 PM 32.7344 -85.2262 341° North  Level FlightAware Approximate
Thu 12:29:00 PM 32.7758 -85.2430 341° North  Level FlightAware Approximate
Thu 12:30:00 PM 32.8172 -85.2599 341° North  Level FlightAware Approximate
Thu 12:31:00 PM 32.8585 -85.2767 341° North  Level FlightAware Approximate
Thu 12:32:00 PM 32.8999 -85.2936 341° North  Level FlightAware Approximate
Thu 12:33:00 PM 32.9413 -85.3105 341° North  Level FlightAware Approximate
Thu 12:34:00 PM 32.9826 -85.3275 341° North  Level FlightAware Approximate
Thu 12:35:00 PM 33.0240 -85.3444 341° North  Level FlightAware Approximate
Thu 12:36:00 PM 33.0653 -85.3614 341° North  Level FlightAware Approximate
Thu 12:37:00 PM 33.1067 -85.3783 341° North  Level FlightAware Approximate
Thu 12:37:09 PM 27.3375 -80.8453 341° North 153 176 1,700  Level Miami Center
Thu 12:38:00 PM 33.1481 -85.3953 341° North  Level FlightAware Approximate
Thu 12:38:09 PM 27.3728 -80.8489 355° North 132 152 2,300  Level Miami Center
Thu 12:39:00 PM 33.1894 -85.4123 341° North  Level FlightAware Approximate
Thu 12:39:09 PM 27.4058 -80.8617 341° North 122 140 2,900  Level Miami Center
Thu 12:40:00 PM 33.2308 -85.4293 341° North  Level FlightAware Approximate
Thu 12:40:09 PM 27.4408 -80.8747 342° North 127 146 3,500  Level Miami Center
Thu 12:41:00 PM 33.2721 -85.4464 341° North  Level FlightAware Approximate
Thu 12:41:09 PM 27.4719 -80.8875 340° North 127 146 4,100  Level Miami Center
Thu 12:42:00 PM 33.3135 -85.4634 341° North  Level FlightAware Approximate
Thu 12:42:09 PM 27.5028 -80.9050 333° Northwest 127 146 4,700  Level Miami Center
Thu 12:43:09 PM 27.5317 -80.9175 339° North 127 146 5,300 600 Climbing Miami Center
Thu 12:44:09 PM 27.5625 -80.9328 336° Northwest 122 140 5,900 600 Climbing Miami Center
Thu 12:45:09 PM 27.5956 -80.9456 341° North 117 135 6,500 600 Climbing Miami Center
Thu 12:46:09 PM 27.6264 -80.9608 336° Northwest 117 135 7,100 550 Climbing Miami Center
Thu 12:47:09 PM 27.6592 -80.9783 335° Northwest 122 140 7,600 450 Climbing Miami Center
Thu 12:48:09 PM 27.6986 -80.9892 346° North 135 155 8,000 123 Climbing Miami Center
Thu 12:50:24 PM 27.8000 -81.0000 355° North 173 199 8,000  Level Orlando TRACON
Thu 12:51:24 PM 27.8167 -81.0500 291° West 160 184 8,000  Level Orlando TRACON
Thu 12:52:18 PM 27.8333 -81.1000 291° West 162 186 8,000  Level Orlando TRACON
Thu 12:53:24 PM 27.8500 -81.1500 291° West 162 186 8,000  Level Orlando TRACON
Thu 12:54:24 PM 27.8667 -81.2000 291° West 160 184 8,000  Level Orlando TRACON
Thu 12:55:30 PM 27.9000 -81.2500 307° West 168 193 8,000  Level Orlando TRACON
Thu 12:57:30 PM 27.9500 -81.3333 304° West 166 191 8,000  Level Orlando TRACON
Thu 12:58:30 PM 27.9833 -81.3667 319° Northwest 166 191 8,000  Level Orlando TRACON
Thu 12:59:30 PM 28.0000 -81.4167 291° West 169 194 8,000  Level Orlando TRACON
Thu 01:00:30 PM 28.0333 -81.4500 319° Northwest 167 192 8,000  Level Orlando TRACON
Thu 01:01:24 PM 28.0667 -81.4833 319° Northwest 164 189 8,000  Level Orlando TRACON
Thu 01:02:25 PM 28.1000 -81.5167 319° Northwest 159 183 8,000  Level Orlando TRACON
Thu 01:03:25 PM 28.1333 -81.5333 336° Northwest 163 188 8,000  Level Orlando TRACON
Thu 01:04:30 PM 28.1833 -81.5667 330° Northwest 159 183 8,000  Level Orlando TRACON
Thu 01:05:30 PM 28.2167 -81.6000 319° Northwest 159 183 8,000  Level Orlando TRACON
Thu 01:06:31 PM 28.2500 -81.6167 336° Northwest 162 186 8,000  Level Orlando TRACON
Thu 01:07:31 PM 28.3000 -81.6500 330° Northwest 157 181 8,000  Level Orlando TRACON
Thu 01:08:25 PM 28.3333 -81.6667 336° Northwest 160 184 8,000  Level Orlando TRACON
Thu 01:09:25 PM 28.3667 -81.7000 319° Northwest 157 181 8,000  Level Orlando TRACON
Thu 01:10:25 PM 28.4000 -81.7333 319° Northwest 159 183 8,000  Level Orlando TRACON
Thu 01:11:19 PM 28.4333 -81.7500 336° Northwest 159 183 8,000  Level Orlando TRACON
Thu 01:12:19 PM 28.4667 -81.7667 336° Northwest 160 184 8,000  Level Orlando TRACON
Thu 01:13:31 PM 28.5167 -81.8000 330° Northwest 157 181 8,000  Level Orlando TRACON
Thu 01:14:31 PM 28.5500 -81.8333 319° Northwest 158 182 8,000  Level Orlando TRACON
Thu 01:16:22 PM 28.6258 -81.8803 331° Northwest 164 189 8,000  Level Jacksonville Center
Thu 01:17:23 PM 28.6658 -81.9058 331° Northwest 166 191 8,000 49 Level Jacksonville Center
Thu 01:18:24 PM 28.7056 -81.9292 333° Northwest 163 188 8,100 50 Climbing Jacksonville Center
Thu 01:19:24 PM 28.7456 -81.9572 328° Northwest 165 190 8,100  Level Jacksonville Center
Thu 01:20:25 PM 28.7875 -81.9828 332° Northwest 167 192 8,100  Level Jacksonville Center
Thu 01:21:32 PM 28.8356 -82.0108 333° Northwest 167 192 8,100  Level Jacksonville Center
Thu 01:22:21 PM 28.8586 -82.0392 313° West 164 189 8,100  Level Jacksonville Center
Thu 01:23:22 PM 28.8883 -82.0817 309° West 165 190 8,100  Level Jacksonville Center
Thu 01:24:23 PM 28.9219 -82.1239 312° West 168 193 8,100  Level Jacksonville Center
Thu 01:25:18 PM 28.9492 -82.1594 311° West 167 192 8,100  Level Jacksonville Center
Thu 01:26:25 PM 28.9808 -82.2042 309° West 168 193 8,100  Level Jacksonville Center
Thu 01:27:19 PM 29.0103 -82.2419 312° West 169 194 8,100  Level Jacksonville Center
Thu 01:28:20 PM 29.0417 -82.2822 312° West 172 198 8,100 -47 Level Jacksonville Center
Thu 01:29:27 PM 29.0753 -82.3294 309° West 171 197 8,000  Descending Jacksonville Center
Thu 01:30:34 PM 29.0922 -82.3842 290° West 170 196 8,100 49 Climbing Jacksonville Center
Thu 01:31:29 PM 29.1050 -82.4339 286° West 168 193 8,100  Level Jacksonville Center
Thu 01:32:24 PM 29.1178 -82.4814 287° West 169 194 8,100 -54 Level Jacksonville Center
Thu 01:33:20 PM 29.1325 -82.5264 291° West 169 194 8,000  Descending Jacksonville Center
Thu 01:34:20 PM 29.1450 -82.5764 286° West 174 200 8,100 50 Climbing Jacksonville Center
Thu 01:35:20 PM 29.1597 -82.6311 287° West 174 200 8,100  Level Jacksonville Center
Thu 01:36:20 PM 29.1767 -82.6833 290° West 174 200 8,100  Level Jacksonville Center
Thu 01:37:20 PM 29.1997 -82.7333 298° West 179 206 8,100  Level Jacksonville Center
Thu 01:38:20 PM 29.2225 -82.7831 298° West 179 206 8,100  Level Jacksonville Center
Thu 01:39:20 PM 29.2436 -82.8283 298° West 179 206 8,100  Level Jacksonville Center
Thu 01:40:20 PM 29.2686 -82.8806 299° West 174 200 8,100  Level Jacksonville Center
Thu 01:41:20 PM 29.2917 -82.9306 298° West 174 200 8,100  Level Jacksonville Center
Thu 01:42:20 PM 29.3186 -82.9806 302° West 179 206 8,100  Level Jacksonville Center
Thu 01:43:20 PM 29.3353 -83.0331 290° West 179 206 8,100  Level Jacksonville Center
Thu 01:44:20 PM 29.3478 -83.0881 285° West 174 200 8,100  Level Jacksonville Center
Thu 01:45:20 PM 29.3561 -83.1403 280° West 174 200 8,100  Level Jacksonville Center
Thu 01:46:20 PM 29.3517 -83.1928 264° West 169 194 8,100  Level Jacksonville Center
Thu 01:47:20 PM 29.3392 -83.2453 255° West 169 194 8,100  Level Jacksonville Center
Thu 01:48:20 PM 29.3264 -83.2975 254° West 169 194 8,100  Level Jacksonville Center
Thu 01:49:20 PM 29.3158 -83.3497 257° West 169 194 8,100  Level Jacksonville Center
Thu 01:50:20 PM 29.3053 -83.4022 257° West 174 200 8,100  Level Jacksonville Center
Thu 01:51:20 PM 29.2986 -83.4569 262° West 174 200 8,100  Level Jacksonville Center
Thu 01:52:20 PM 29.2983 -83.5117 270° West 174 200 8,100  Level Jacksonville Center
Thu 01:53:20 PM 29.2981 -83.5664 270° West 179 206 8,100  Level Jacksonville Center
Thu 01:54:20 PM 29.3103 -83.6189 285° West 179 206 8,100  Level Jacksonville Center
Thu 01:55:20 PM 29.3372 -83.6619 306° West 174 200 8,100  Level Jacksonville Center
Thu 01:56:20 PM 29.3661 -83.7028 309° West 169 194 8,100  Level Jacksonville Center
Thu 01:57:20 PM 29.4017 -83.7317 325° Northwest 162 186 8,100  Level Jacksonville Center
Thu 01:58:20 PM 29.4389 -83.7558 331° Northwest 156 180 8,100  Level Jacksonville Center
Thu 01:59:20 PM 29.4742 -83.7800 329° Northwest 151 174 8,100  Level Jacksonville Center
Thu 02:00:20 PM 29.5117 -83.7994 336° Northwest 146 168 8,100  Level Jacksonville Center
Thu 02:01:20 PM 29.5469 -83.8189 334° Northwest 139 160 8,100  Level Jacksonville Center
Thu 02:02:20 PM 29.5825 -83.8358 337° Northwest 139 160 8,100  Level Jacksonville Center
Thu 02:03:20 PM 29.6197 -83.8578 333° Northwest 139 160 8,100  Level Jacksonville Center
Thu 02:04:20 PM 29.6531 -83.8747 336° Northwest 139 160 8,100  Level Jacksonville Center
Thu 02:05:20 PM 29.6883 -83.8967 332° Northwest 139 160 8,100  Level Jacksonville Center
Thu 02:06:20 PM 29.7236 -83.9258 324° Northwest 139 160 8,100  Level Jacksonville Center
Thu 02:07:20 PM 29.7611 -83.9525 328° Northwest 152 175 8,100  Level Jacksonville Center
Thu 02:08:20 PM 29.8025 -83.9792 331° Northwest 157 181 8,100  Level Jacksonville Center
Thu 02:09:20 PM 29.8464 -83.9942 343° North 163 188 8,100  Level Jacksonville Center
Thu 02:10:20 PM 29.8900 -84.0114 341° North 163 188 8,100  Level Jacksonville Center
Thu 02:11:20 PM 29.9358 -84.0333 337° Northwest 169 194 8,100  Level Jacksonville Center
Thu 02:12:20 PM 29.9772 -84.0603 331° Northwest 174 200 8,100  Level Jacksonville Center
Thu 02:14:00 PM 30.0180 -84.0819 335° Northwest  Level FlightAware Approximate
Thu 02:21:00 PM 30.1890 -84.1731 335° Northwest  Level FlightAware Approximate
Thu 02:22:00 PM 30.2134 -84.1862 335° Northwest  Level FlightAware Approximate
Thu 02:23:00 PM 30.2379 -84.1992 335° Northwest  Level FlightAware Approximate
Thu 02:24:00 PM 30.2623 -84.2123 335° Northwest  Level FlightAware Approximate
Thu 02:25:00 PM 30.2867 -84.2253 335° Northwest  Level FlightAware Approximate
Thu 02:26:00 PM 30.3112 -84.2384 335° Northwest  Level FlightAware Approximate
Thu 02:27:00 PM 30.3356 -84.2515 335° Northwest  Level FlightAware Approximate
Thu 02:28:00 PM 30.3600 -84.2646 335° Northwest  Level FlightAware Approximate
Thu 02:29:00 PM 30.3844 -84.2777 335° Northwest  Level FlightAware Approximate
Thu 02:30:00 PM 30.4089 -84.2908 335° Northwest  Level FlightAware Approximate
Thu 02:31:00 PM 30.4333 -84.3039 335° Northwest  Level FlightAware Approximate
Thu 02:32:00 PM 30.4577 -84.3170 335° Northwest  Level FlightAware Approximate
Thu 02:32:20 PM 30.8703 -84.4925 342° North 172 198 8,100  Level Jacksonville Center
Thu 02:33:00 PM 30.4821 -84.3301 335° Northwest  Level FlightAware Approximate
Thu 02:33:20 PM 30.9161 -84.5125 339° North 179 206 8,000  Level Jacksonville Center
Thu 02:34:00 PM 30.5065 -84.3433 335° Northwest  Level FlightAware Approximate
Thu 02:34:20 PM 30.9575 -84.5303 340° North 184 212 8,000  Level Jacksonville Center
Thu 02:35:00 PM 30.5310 -84.3564 335° Northwest  Level FlightAware Approximate
Thu 02:35:20 PM 31.0053 -84.5481 342° North 179 206 8,000  Level Jacksonville Center
Thu 02:36:00 PM 30.5556 -84.3688 342° North  Level FlightAware Approximate
Thu 02:36:20 PM 31.0531 -84.5633 345° North 179 206 8,000  Level Jacksonville Center
Thu 02:37:20 PM 31.0989 -84.5836 339° North 174 200 8,000  Level Jacksonville Center
Thu 02:38:20 PM 31.1444 -84.6014 342° North 174 200 8,000  Level Jacksonville Center
Thu 02:39:20 PM 31.1922 -84.6194 342° North 174 200 8,000  Level Jacksonville Center
Thu 02:40:20 PM 31.2422 -84.6397 341° North 174 200 8,000  Level Jacksonville Center
Thu 02:41:20 PM 31.2878 -84.6575 342° North 174 200 8,000  Level Jacksonville Center
Thu 02:42:20 PM 31.3333 -84.6778 339° North 174 200 8,000  Level Jacksonville Center
Thu 02:43:20 PM 31.3811 -84.6958 342° North 169 194 8,000  Level Jacksonville Center
Thu 02:44:20 PM 31.4289 -84.7161 340° North 174 200 8,000  Level Jacksonville Center
Thu 02:45:20 PM 31.4789 -84.7317 345° North 174 200 8,000  Level Jacksonville Center
Thu 02:46:20 PM 31.5225 -84.7497 341° North 179 206 8,000  Level Jacksonville Center
Thu 02:47:20 PM 31.5700 -84.7700 340° North 179 206 8,000  Level Jacksonville Center
Thu 02:48:20 PM 31.6178 -84.7906 340° North 179 206 8,000  Level Jacksonville Center
Thu 02:49:20 PM 31.6636 -84.8086 341° North 179 206 8,000  Level Jacksonville Center
Thu 02:50:57 PM 31.7500 -84.8333 346° North 188 216 8,000  Level Atlanta TRACON
Thu 02:51:57 PM 31.8000 -84.8667 330° Northwest 188 216 8,000  Level Atlanta TRACON
Thu 02:52:57 PM 31.8500 -84.8833 344° North 188 216 8,000  Level Atlanta TRACON
Thu 02:53:57 PM 31.9000 -84.9000 344° North 187 215 8,000  Level Atlanta TRACON
Thu 02:54:57 PM 31.9500 -84.9167 344° North 188 216 8,000  Level Atlanta TRACON
Thu 02:55:57 PM 32.0000 -84.9333 344° North 188 216 8,000  Level Atlanta TRACON
Thu 02:56:57 PM 32.0500 -84.9667 331° Northwest 187 215 8,000  Level Atlanta TRACON
Thu 02:57:57 PM 32.1000 -84.9833 344° North 184 212 8,000  Level Atlanta TRACON
Thu 02:58:57 PM 32.1500 -85.0000 344° North 185 213 8,000  Level Atlanta TRACON
Thu 02:59:57 PM 32.2000 -85.0167 344° North 186 214 8,000  Level Atlanta TRACON
Thu 03:00:57 PM 32.2500 -85.0333 344° North 186 214 8,000  Level Atlanta TRACON
Thu 03:01:57 PM 32.3000 -85.0500 344° North 182 209 8,000  Level Atlanta TRACON
Thu 03:02:57 PM 32.3333 -85.0833 320° Northwest 182 209 8,000 -50 Level Atlanta TRACON
Thu 03:03:57 PM 32.3833 -85.1000 344° North 185 213 7,900 -50 Descending Atlanta TRACON
Thu 03:04:57 PM 32.4333 -85.1167 344° North 186 214 7,900 50 Level Atlanta TRACON
Thu 03:05:57 PM 32.4833 -85.1333 344° North 187 215 8,000 50 Climbing Atlanta TRACON
Thu 03:06:57 PM 32.5333 -85.1500 344° North 188 216 8,000 -50 Level Atlanta TRACON
Thu 03:07:57 PM 32.5833 -85.1667 344° North 189 217 7,900 -50 Descending Atlanta TRACON
Thu 03:08:57 PM 32.6333 -85.2000 331° Northwest 186 214 7,900 50 Level Atlanta TRACON
Thu 03:09:57 PM 32.6833 -85.2167 344° North 186 214 8,000  Climbing Atlanta TRACON
Thu 03:10:57 PM 32.7333 -85.2333 344° North 187 215 7,900 -50 Descending Atlanta TRACON
Thu 03:11:57 PM 32.7833 -85.2500 344° North 186 214 7,900  Level Atlanta TRACON
Thu 03:12:57 PM 32.8333 -85.2667 344° North 184 212 7,900  Level Atlanta TRACON
Thu 03:13:57 PM 32.8667 -85.3000 320° Northwest 185 213 7,900  Level Atlanta TRACON
Thu 03:14:57 PM 32.9167 -85.3167 344° North 187 215 7,900  Level Atlanta TRACON
Thu 03:15:57 PM 32.9667 -85.3333 344° North 184 212 7,900  Level Atlanta TRACON
Thu 03:16:49 PM 33.0128 -85.3517 342° North 183 211 7,900 54 Level Atlanta Center
Thu 03:17:49 PM 33.0564 -85.3697 341° North 192 221 8,000 50 Climbing Atlanta Center
Thu 03:18:49 PM 33.1044 -85.3903 340° North 185 213 8,000  Level Atlanta Center
Thu 03:19:49 PM 33.1542 -85.4108 341° North 180 207 8,000  Level Atlanta Center
Thu 03:20:49 PM 33.2000 -85.4267 344° North 180 207 8,000  Level Atlanta Center
Thu 03:21:49 PM 33.2478 -85.4472 340° North 180 207 8,000  Level Atlanta Center
Thu 03:22:49 PM 33.2975 -85.4678 341° North 180 207 8,000  Level Atlanta Center
Thu 03:23:49 PM 33.3475 -85.4911 339° North 180 207 8,000  Level Atlanta Center
Thu 03:24:49 PM 33.3953 -85.5094 342° North 188 216 8,000  Level Atlanta Center
Thu 03:25:49 PM 33.4408 -85.5300 339° North 188 216 8,000  Level Atlanta Center
Thu 03:26:49 PM 33.4908 -85.5483 343° North 188 216 8,000  Level Atlanta Center
Thu 03:27:49 PM 33.5364 -85.5714 337° Northwest 181 208 8,000  Level Atlanta Center
Thu 03:28:49 PM 33.5861 -85.5900 343° North 181 208 8,000  Level Atlanta Center
Thu 03:29:49 PM 33.6361 -85.6083 343° North 181 208 8,000  Level Atlanta Center
Thu 03:30:49 PM 33.6817 -85.6267 341° North 183 211 8,000  Level Atlanta Center
Thu 03:31:49 PM 33.7253 -85.6472 339° North 194 223 8,000  Level Atlanta Center
Thu 03:32:49 PM 33.7731 -85.6681 340° North 187 215 8,000  Level Atlanta Center
Thu 03:33:49 PM 33.8208 -85.6867 342° North 187 215 8,000  Level Atlanta Center
Thu 03:34:49 PM 33.8664 -85.7075 339° North 180 207 8,000  Level Atlanta Center
Thu 03:35:49 PM 33.9183 -85.7286 341° North 180 207 8,000  Level Atlanta Center
Thu 03:36:49 PM 33.9619 -85.7469 341° North 186 214 8,000  Level Atlanta Center
Thu 03:37:49 PM 34.0181 -85.7681 343° North 181 208 8,000  Level Atlanta Center
Thu 03:38:49 PM 34.0617 -85.7864 341° North 181 208 8,000  Level Atlanta Center
Thu 03:39:49 PM 34.1050 -85.8075 338° Northwest 171 197 8,000  Level Atlanta Center
Thu 03:40:49 PM 34.1467 -85.8208 345° North 171 197 8,000  Level Atlanta Center
Thu 03:41:49 PM 34.1903 -85.8419 338° Northwest 171 197 8,000  Level Atlanta Center
Thu 03:42:49 PM 34.2378 -85.8606 342° North 171 197 8,000  Level Atlanta Center
Thu 03:43:49 PM 34.2814 -85.8792 341° North 171 197 8,000  Level Atlanta Center
Thu 03:44:49 PM 34.3269 -85.8975 342° North 171 197 8,000  Level Atlanta Center
Thu 03:45:49 PM 34.3706 -85.9186 338° Northwest 171 197 8,000  Level Atlanta Center
Thu 03:46:49 PM 34.4183 -85.9375 342° North 174 200 8,000  Level Atlanta Center
Thu 03:48:00 PM 34.4490 -85.9493 342° North  Level FlightAware Approximate
Thu 03:52:08 PM 34.6567 -86.0397 342° North 198 228 8,000  Level Memphis Center
Thu 03:53:08 PM 34.7033 -86.0603 340° North 193 222 8,000  Level Memphis Center
Thu 03:54:08 PM 34.7519 -86.0806 341° North 181 208 8,000  Level Memphis Center
Thu 03:55:00 PM 34.6307 -86.0194 342° North  Level FlightAware Approximate
Thu 03:55:08 PM 34.7944 -86.1011 338° Northwest 175 201 8,000  Level Memphis Center
Thu 03:56:00 PM 34.6566 -86.0294 342° North  Level FlightAware Approximate
Thu 03:56:08 PM 34.8408 -86.1164 345° North 169 194 8,000  Level Memphis Center
Thu 03:57:08 PM 34.8875 -86.1344 342° North 169 194 8,000  Level Memphis Center
Thu 03:58:08 PM 34.9339 -86.1547 340° North 169 194 8,000  Level Memphis Center
Thu 03:59:08 PM 34.9783 -86.1728 342° North 169 194 8,000  Level Memphis Center
Thu 04:00:08 PM 35.0250 -86.1933 340° North 169 194 8,000  Level Memphis Center
Thu 04:01:08 PM 35.0697 -86.2192 335° Northwest 169 194 8,000  Level Memphis Center
Thu 04:02:08 PM 35.1164 -86.2397 340° North 174 200 8,000  Level Memphis Center
Thu 04:03:08 PM 35.1586 -86.2553 343° North 174 200 8,000  Level Memphis Center
Thu 04:04:08 PM 35.2092 -86.2756 342° North 169 194 8,000  Level Memphis Center
Thu 04:05:08 PM 35.2536 -86.2964 339° North 169 194 8,000  Level Memphis Center
Thu 04:06:08 PM 35.3003 -86.3169 340° North 174 200 8,000 -200 Level Memphis Center
Thu 04:07:08 PM 35.3467 -86.3350 342° North 174 200 7,600 -450 Descending Memphis Center
Thu 04:08:08 PM 35.3956 -86.3583 339° North 174 200 7,100 -500 Descending Memphis Center
Thu 04:09:08 PM 35.4439 -86.3764 343° North 174 200 6,600 -500 Descending Memphis Center
Thu 04:10:08 PM 35.4928 -86.4019 337° Northwest 179 206 6,100 -300 Descending Memphis Center
Thu 04:11:08 PM 35.5414 -86.4228 341° North 174 200 6,000 -50 Descending Memphis Center
Thu 04:12:08 PM 35.5881 -86.4433 340° North 174 200 6,000  Level Memphis Center
Thu 04:13:08 PM 35.6367 -86.4642 341° North 174 200 6,000  Level Memphis Center
Thu 04:14:08 PM 35.6789 -86.4825 341° North 174 200 6,000  Level Memphis Center
Thu 04:15:08 PM 35.7233 -86.5036 339° North 174 200 6,000  Level Memphis Center
Thu 04:16:08 PM 35.7697 -86.5244 340° North 174 200 6,000  Level Memphis Center
Thu 04:17:08 PM 35.8183 -86.5425 343° North 174 200 6,000  Level Memphis Center
Thu 04:18:08 PM 35.8669 -86.5608 343° North 174 200 6,000  Level Memphis Center
Thu 04:19:08 PM 35.9172 -86.5689 353° North 174 200 6,000 -200 Level Memphis Center
Thu 04:20:08 PM 35.9653 -86.5692 360° North 174 200 5,600 -450 Descending Memphis Center
Thu 04:21:08 PM 36.0153 -86.5719 357° North 174 200 5,100 -300 Descending Memphis Center
Thu 04:22:08 PM 36.0611 -86.5750 357° North 164 189 5,000 -100 Descending Memphis Center
Thu 04:23:08 PM 36.1028 -86.5653 11° North 153 176 4,900 -500 Descending Memphis Center
Thu 04:24:08 PM 36.1483 -86.5581 North 153 176 4,000 -900 Descending Memphis Center
Thu 04:25:08 PM 36.1747 -86.6006 308° West 144 166 3,100 -923 Descending Memphis Center
Thu 04:26:57 PM 36.1667 -86.6667 261° West 106 122 1,400 -817 Descending Nashville TRACON
Thu 04:27:57 PM 36.1333 -86.6667 180° South 91 105 800 -600 Descending Nashville TRACON
Thu 04:29:00 PM 36.1245 -86.6782 180° South  Level Estimated
Thu 04:36:00 PM 36.1245 -86.6782 345° North  Level Estimated

Login

Don't have an account? Register now (free) for customized features, flight alerts, and more!